createdAt,value
2023-03-02T00:00:16.586Z,-5.00
2023-03-02T00:03:06.295Z,-5.10
2023-03-02T00:05:55.662Z,-5.10
2023-03-02T00:08:43.696Z,-5.20
2023-03-02T00:11:33.696Z,-5.20
2023-03-02T00:14:21.132Z,-5.20
2023-03-02T00:17:10.531Z,-5.20
2023-03-02T00:20:10.392Z,-5.20
2023-03-02T00:22:58.317Z,-5.20
2023-03-02T00:25:45.935Z,-5.20
2023-03-02T00:28:35.472Z,-5.20
2023-03-02T00:31:23.275Z,-5.20
2023-03-02T00:34:10.681Z,-5.20
2023-03-02T00:36:58.143Z,-5.20
2023-03-02T00:39:46.324Z,-5.20
2023-03-02T00:42:34.137Z,-5.30
2023-03-02T00:45:23.020Z,-5.20
2023-03-02T00:48:10.645Z,-5.30
2023-03-02T00:51:01.660Z,-5.30
2023-03-02T00:53:49.510Z,-5.30
2023-03-02T00:56:37.024Z,-5.30
2023-03-02T00:59:29.542Z,-5.40
2023-03-02T01:02:39.112Z,-5.40
2023-03-02T01:05:27.197Z,-5.40
2023-03-02T01:08:14.762Z,-5.40
2023-03-02T01:11:02.495Z,-5.40
2023-03-02T01:13:51.492Z,-5.40
2023-03-02T01:16:38.950Z,-5.40
2023-03-02T01:19:28.289Z,-5.40
2023-03-02T01:22:15.886Z,-5.40
2023-03-02T01:25:03.630Z,-5.40
2023-03-02T01:27:51.087Z,-5.40
2023-03-02T01:30:38.729Z,-5.40
2023-03-02T01:33:26.198Z,-5.30
2023-03-02T01:36:15.357Z,-5.30
2023-03-02T01:39:05.399Z,-5.30
2023-03-02T01:41:54.258Z,-5.40
2023-03-02T01:44:45.038Z,-5.40
2023-03-02T01:47:36.728Z,-5.40
2023-03-02T01:50:29.894Z,-5.40
2023-03-02T01:53:24.074Z,-5.40
2023-03-02T01:56:11.685Z,-5.50
2023-03-02T01:59:02.525Z,-5.50
2023-03-02T02:01:53.045Z,-5.60
2023-03-02T02:04:43.587Z,-5.60
2023-03-02T02:07:31.236Z,-5.70
2023-03-02T02:10:20.852Z,-5.60
2023-03-02T02:13:10.863Z,-5.60
2023-03-02T02:15:58.740Z,-5.60
2023-03-02T02:18:46.592Z,-5.70
2023-03-02T02:21:34.133Z,-5.60
2023-03-02T02:24:26.077Z,-5.70
2023-03-02T02:27:15.820Z,-5.70
2023-03-02T02:30:05.767Z,-5.70
2023-03-02T02:32:55.843Z,-5.60
2023-03-02T02:35:45.732Z,-5.60
2023-03-02T02:38:35.863Z,-5.60
2023-03-02T02:41:28.504Z,-5.70
2023-03-02T02:44:19.404Z,-5.70
2023-03-02T02:47:15.028Z,-5.70
2023-03-02T02:50:02.974Z,-5.70
2023-03-02T02:52:55.997Z,-5.80
2023-03-02T02:55:44.292Z,-5.80
2023-03-02T02:58:36.242Z,-5.80
2023-03-02T03:01:26.696Z,-5.80
2023-03-02T03:04:19.972Z,-5.80
2023-03-02T03:07:08.463Z,-5.80
2023-03-02T03:10:02.937Z,-5.80
2023-03-02T03:12:52.258Z,-5.80
2023-03-02T03:15:41.569Z,-5.80
2023-03-02T03:18:31.905Z,-5.80
2023-03-02T03:21:19.927Z,-5.90
2023-03-02T03:24:08.419Z,-5.90
2023-03-02T03:26:57.445Z,-6.00
2023-03-02T03:29:48.184Z,-6.00
2023-03-02T03:32:38.002Z,-6.00
2023-03-02T03:35:27.479Z,-5.90
2023-03-02T03:38:15.064Z,-5.90
2023-03-02T03:41:06.608Z,-5.90
2023-03-02T03:43:55.149Z,-5.90
2023-03-02T03:46:43.031Z,-5.80
2023-03-02T03:49:30.714Z,-5.80
2023-03-02T03:52:30.436Z,-5.90
2023-03-02T03:55:24.266Z,-5.90
2023-03-02T03:58:11.988Z,-5.90
2023-03-02T04:01:00.827Z,-5.90
2023-03-02T04:03:48.185Z,-5.90
2023-03-02T04:06:36.375Z,-5.90
2023-03-02T04:09:26.065Z,-6.00
2023-03-02T04:12:14.750Z,-6.00
2023-03-02T04:15:15.073Z,-6.10
2023-03-02T04:18:03.662Z,-6.10
2023-03-02T04:20:52.292Z,-6.10
2023-03-02T04:23:39.936Z,-6.20
2023-03-02T04:26:28.798Z,-6.20
2023-03-02T04:29:17.307Z,-6.10
2023-03-02T04:32:04.993Z,-6.10
2023-03-02T04:34:54.321Z,-6.10
2023-03-02T04:37:43.183Z,-6.10
2023-03-02T04:40:30.965Z,-6.10
2023-03-02T04:43:19.649Z,-6.10
2023-03-02T04:46:07.038Z,-6.10
2023-03-02T04:48:55.017Z,-6.10
2023-03-02T04:51:45.811Z,-6.10
2023-03-02T04:54:34.977Z,-6.10
2023-03-02T04:57:22.437Z,-6.10
2023-03-02T05:00:13.453Z,-6.20
2023-03-02T05:03:01.088Z,-6.20
2023-03-02T05:05:48.822Z,-6.30
2023-03-02T05:08:36.216Z,-6.30
2023-03-02T05:11:23.852Z,-6.30
2023-03-02T05:14:14.104Z,-6.30
2023-03-02T05:17:05.952Z,-6.30
2023-03-02T05:19:53.254Z,-6.30
2023-03-02T05:22:40.649Z,-6.30
2023-03-02T05:25:29.868Z,-6.30
2023-03-02T05:28:18.091Z,-6.30
2023-03-02T05:31:07.822Z,-6.30
2023-03-02T05:33:56.980Z,-6.30
2023-03-02T05:36:45.284Z,-6.30
2023-03-02T05:39:33.103Z,-6.30
2023-03-02T05:42:20.490Z,-6.20
2023-03-02T05:45:09.886Z,-6.30
2023-03-02T05:47:57.830Z,-6.20
2023-03-02T05:50:46.771Z,-6.20
2023-03-02T05:53:34.743Z,-6.10
2023-03-02T05:56:22.628Z,-6.10
2023-03-02T05:59:10.075Z,-6.10
2023-03-02T06:01:59.336Z,-6.10
2023-03-02T06:04:47.022Z,-6.00
2023-03-02T06:07:35.926Z,-6.00
2023-03-02T06:10:23.787Z,-6.00
2023-03-02T06:13:11.299Z,-5.90
2023-03-02T06:15:59.070Z,-5.80
2023-03-02T06:18:46.895Z,-5.70
2023-03-02T06:21:34.579Z,-5.60
2023-03-02T06:24:23.701Z,-5.60
2023-03-02T06:27:11.658Z,-5.40
2023-03-02T06:29:59.365Z,-5.30
2023-03-02T06:32:46.837Z,-5.20
2023-03-02T06:35:35.011Z,-5.00
2023-03-02T06:38:22.560Z,-4.80
2023-03-02T06:41:11.721Z,-4.60
2023-03-02T06:43:59.306Z,-4.40
2023-03-02T06:46:46.965Z,-4.20
2023-03-02T06:49:34.720Z,-4.00
2023-03-02T06:52:22.446Z,-3.90
2023-03-02T06:55:11.159Z,-3.60
2023-03-02T06:58:00.295Z,-3.40
2023-03-02T07:00:48.158Z,-3.20
2023-03-02T07:03:36.217Z,-2.90
2023-03-02T07:06:23.697Z,-2.70
2023-03-02T07:09:11.142Z,-2.30
2023-03-02T07:11:58.601Z,-2.10
2023-03-02T07:14:47.562Z,-1.80
2023-03-02T07:17:35.587Z,-1.50
2023-03-02T07:20:23.115Z,-1.30
2023-03-02T07:23:10.464Z,-1.00
2023-03-02T07:25:58.788Z,-0.70
2023-03-02T07:28:46.227Z,-0.50
2023-03-02T07:31:35.299Z,-0.30
2023-03-02T07:34:22.877Z,-0.10
2023-03-02T07:37:10.380Z,0.10
2023-03-02T07:39:59.686Z,0.40
2023-03-02T07:42:48.293Z,0.60
2023-03-02T07:45:35.800Z,0.80
2023-03-02T07:48:24.735Z,1.00
2023-03-02T07:51:12.117Z,1.10
2023-03-02T07:53:59.535Z,1.20
2023-03-02T07:56:47.412Z,1.40
2023-03-02T07:59:35.124Z,1.60
2023-03-02T08:02:23.034Z,1.80
2023-03-02T08:05:13.233Z,2.00
2023-03-02T08:08:00.772Z,2.20
2023-03-02T08:10:48.523Z,2.40
2023-03-02T08:13:35.939Z,2.60
2023-03-02T08:16:25.711Z,2.90
2023-03-02T08:19:13.196Z,3.10
2023-03-02T08:22:02.282Z,3.30
2023-03-02T08:24:49.850Z,3.50
2023-03-02T08:27:38.210Z,3.70
2023-03-02T08:30:25.868Z,3.80
2023-03-02T08:33:13.246Z,4.00
2023-03-02T08:36:03.131Z,4.10
2023-03-02T08:38:52.191Z,4.30
2023-03-02T08:41:40.038Z,4.40
2023-03-02T08:44:27.743Z,4.50
2023-03-02T08:47:15.251Z,4.60
2023-03-02T08:50:02.612Z,4.70
2023-03-02T08:52:50.009Z,4.80
2023-03-02T08:55:39.061Z,5.00
2023-03-02T08:58:27.051Z,5.10
2023-03-02T09:01:16.331Z,5.20
2023-03-02T09:04:05.244Z,5.30
2023-03-02T09:06:52.537Z,5.40
2023-03-02T09:09:39.953Z,5.60
2023-03-02T09:12:29.148Z,5.80
2023-03-02T09:15:16.477Z,5.90
2023-03-02T09:18:03.807Z,6.00
2023-03-02T09:20:55.119Z,6.20
2023-03-02T09:23:42.604Z,6.10
2023-03-02T09:26:30.179Z,6.00
2023-03-02T09:29:18.855Z,5.90
2023-03-02T09:32:06.573Z,6.00
2023-03-02T09:34:54.456Z,6.10
2023-03-02T09:37:44.257Z,6.30
2023-03-02T09:40:34.428Z,6.40
2023-03-02T09:43:33.914Z,6.50
2023-03-02T09:46:27.450Z,6.50
2023-03-02T09:49:29.219Z,6.80
2023-03-02T09:52:30.041Z,6.90
2023-03-02T09:55:20.548Z,7.00
2023-03-02T09:58:15.887Z,7.00
2023-03-02T10:01:10.411Z,7.10
2023-03-02T10:04:08.010Z,7.10
2023-03-02T10:07:02.549Z,7.40
2023-03-02T10:09:50.289Z,7.60
2023-03-02T10:12:47.661Z,7.70
2023-03-02T10:15:42.169Z,7.70
2023-03-02T10:18:36.606Z,7.90
2023-03-02T10:21:29.784Z,8.20
2023-03-02T10:24:29.134Z,8.40
2023-03-02T10:27:20.652Z,8.80
2023-03-02T10:30:17.701Z,9.20
2023-03-02T10:33:15.110Z,9.40
2023-03-02T10:36:04.205Z,9.60
2023-03-02T10:38:54.459Z,9.60
2023-03-02T10:41:47.258Z,9.50
2023-03-02T10:44:37.849Z,9.70
2023-03-02T10:47:27.988Z,9.80
2023-03-02T10:50:23.848Z,9.90
2023-03-02T10:53:18.868Z,9.90
2023-03-02T10:56:19.916Z,10.10
2023-03-02T10:59:27.978Z,9.90
2023-03-02T11:02:23.495Z,10.10
2023-03-02T11:05:29.851Z,10.50
2023-03-02T11:08:20.239Z,10.50
2023-03-02T11:11:23.122Z,10.50
2023-03-02T11:14:15.241Z,10.40
2023-03-02T11:17:03.617Z,10.20
2023-03-02T11:19:52.705Z,10.00
2023-03-02T11:22:46.518Z,10.10
2023-03-02T11:25:40.127Z,10.20
2023-03-02T11:28:37.492Z,10.20
2023-03-02T11:31:33.909Z,10.10
2023-03-02T11:34:33.905Z,10.10
2023-03-02T11:37:24.234Z,10.40
2023-03-02T11:40:22.599Z,10.70
2023-03-02T11:43:13.018Z,11.00
2023-03-02T11:46:10.833Z,11.00
2023-03-02T11:49:05.566Z,11.40
2023-03-02T11:51:59.054Z,11.40
2023-03-02T11:54:50.594Z,11.30
2023-03-02T11:57:44.464Z,11.30
2023-03-02T12:00:35.520Z,10.80
2023-03-02T12:03:38.454Z,10.30
2023-03-02T12:06:30.576Z,10.20
2023-03-02T12:09:33.288Z,10.20
2023-03-02T12:12:44.569Z,10.40
2023-03-02T12:15:39.276Z,10.70
2023-03-02T12:18:44.630Z,10.60
2023-03-02T12:21:41.547Z,10.40
2023-03-02T12:24:30.838Z,10.40
2023-03-02T12:27:27.693Z,10.70
2023-03-02T12:30:24.726Z,11.10
2023-03-02T12:33:22.352Z,11.20
2023-03-02T12:36:16.376Z,11.10
2023-03-02T12:39:22.297Z,10.90
2023-03-02T12:42:30.456Z,10.50
2023-03-02T12:45:34.816Z,10.70
2023-03-02T12:48:27.976Z,10.80
2023-03-02T12:51:22.263Z,11.00
2023-03-02T12:54:15.274Z,11.20
2023-03-02T12:57:09.183Z,11.50
2023-03-02T12:59:59.023Z,11.80
2023-03-02T13:02:49.596Z,12.00
2023-03-02T13:05:38.438Z,12.00
2023-03-02T13:08:29.685Z,12.20
2023-03-02T13:11:31.032Z,11.90
2023-03-02T13:14:22.074Z,11.90
2023-03-02T13:17:25.933Z,12.10
2023-03-02T13:20:16.193Z,12.30
2023-03-02T13:23:05.082Z,12.50
2023-03-02T13:25:55.855Z,12.50
2023-03-02T13:28:43.663Z,12.60
2023-03-02T13:31:32.112Z,12.40
2023-03-02T13:34:23.378Z,12.40
2023-03-02T13:37:24.787Z,12.30
2023-03-02T13:40:40.680Z,12.30
2023-03-02T13:43:40.418Z,12.40
2023-03-02T13:46:36.709Z,12.20
2023-03-02T13:49:29.510Z,12.20
2023-03-02T13:52:24.827Z,12.30
2023-03-02T13:55:15.684Z,12.40
2023-03-02T13:58:03.694Z,12.50
2023-03-02T14:00:53.433Z,12.60
2023-03-02T14:03:41.118Z,12.70
2023-03-02T14:06:28.701Z,12.70
2023-03-02T14:09:16.136Z,12.50
2023-03-02T14:12:03.603Z,12.30
2023-03-02T14:14:52.682Z,12.20
2023-03-02T14:17:42.545Z,12.30
2023-03-02T14:20:29.984Z,12.20
2023-03-02T14:23:17.274Z,12.30
2023-03-02T14:26:20.304Z,12.50
2023-03-02T14:29:20.840Z,12.50
2023-03-02T14:32:11.272Z,12.40
2023-03-02T14:35:01.076Z,12.30
2023-03-02T14:37:50.723Z,12.40
2023-03-02T14:40:38.336Z,12.10
2023-03-02T14:43:26.350Z,12.10
2023-03-02T14:46:14.018Z,12.50
2023-03-02T14:49:01.885Z,12.90
2023-03-02T14:51:59.301Z,13.00
2023-03-02T14:54:52.131Z,13.00
2023-03-02T14:57:39.888Z,12.70
2023-03-02T15:00:28.675Z,12.40
2023-03-02T15:03:19.417Z,12.30
2023-03-02T15:06:17.724Z,12.50
2023-03-02T15:09:07.773Z,12.30
2023-03-02T15:11:55.633Z,12.30
2023-03-02T15:14:43.358Z,12.30
2023-03-02T15:17:31.096Z,12.30
2023-03-02T15:20:18.575Z,12.40
2023-03-02T15:23:06.491Z,11.70
2023-03-02T15:26:00.020Z,10.80
2023-03-02T15:28:51.360Z,9.70
2023-03-02T15:31:39.009Z,9.00
2023-03-02T15:34:26.790Z,8.60
2023-03-02T15:37:14.457Z,8.30
2023-03-02T15:40:02.083Z,8.00
2023-03-02T15:42:51.265Z,7.80
2023-03-02T15:45:38.613Z,7.70
2023-03-02T15:48:26.067Z,7.50
2023-03-02T15:51:13.727Z,7.20
2023-03-02T15:54:01.172Z,7.00
2023-03-02T15:56:52.030Z,6.90
2023-03-02T15:59:41.108Z,6.70
2023-03-02T16:02:28.414Z,6.50
2023-03-02T16:05:17.505Z,6.30
2023-03-02T16:08:05.631Z,6.10
2023-03-02T16:10:59.942Z,6.00
2023-03-02T16:13:47.372Z,5.80
2023-03-02T16:16:36.499Z,5.70
2023-03-02T16:19:24.208Z,5.50
2023-03-02T16:22:11.634Z,5.40
2023-03-02T16:24:59.158Z,5.30
2023-03-02T16:27:47.722Z,5.20
2023-03-02T16:30:36.076Z,5.00
2023-03-02T16:33:25.959Z,4.90
2023-03-02T16:36:14.919Z,4.80
2023-03-02T16:39:02.442Z,4.70
2023-03-02T16:41:51.339Z,4.70
2023-03-02T16:44:39.310Z,4.50
2023-03-02T16:47:26.832Z,4.40
2023-03-02T16:50:17.951Z,4.30
2023-03-02T16:53:05.282Z,4.10
2023-03-02T16:55:52.757Z,4.00
2023-03-02T16:58:41.487Z,3.90
2023-03-02T17:01:29.409Z,3.80
2023-03-02T17:04:18.480Z,3.70
2023-03-02T17:07:07.935Z,3.60
2023-03-02T17:09:55.760Z,3.50
2023-03-02T17:12:43.480Z,3.40
2023-03-02T17:15:31.155Z,3.30
2023-03-02T17:18:18.506Z,3.20
2023-03-02T17:21:06.914Z,3.10
2023-03-02T17:23:56.031Z,3.00
2023-03-02T17:26:43.600Z,2.90
2023-03-02T17:29:30.926Z,2.90
2023-03-02T17:32:18.473Z,2.80
2023-03-02T17:35:06.463Z,2.70
2023-03-02T17:37:53.928Z,2.60
2023-03-02T17:40:42.705Z,2.50
2023-03-02T17:43:33.171Z,2.40
2023-03-02T17:46:23.409Z,2.40
2023-03-02T17:49:11.248Z,2.20
2023-03-02T17:51:59.060Z,2.10
2023-03-02T17:54:46.676Z,2.00
2023-03-02T17:57:35.414Z,2.00
2023-03-02T18:00:25.264Z,1.90
2023-03-02T18:03:13.019Z,1.90
2023-03-02T18:06:00.698Z,1.80
2023-03-02T18:08:50.021Z,1.70
2023-03-02T18:11:37.534Z,1.60
2023-03-02T18:14:28.510Z,1.50
2023-03-02T18:17:16.069Z,1.50
2023-03-02T18:20:03.928Z,1.40
2023-03-02T18:22:51.385Z,1.30
2023-03-02T18:25:38.815Z,1.30
2023-03-02T18:28:27.171Z,1.20
2023-03-02T18:31:16.464Z,1.20
2023-03-02T18:34:04.341Z,1.20
2023-03-02T18:36:51.685Z,1.30
2023-03-02T18:39:39.416Z,1.30
2023-03-02T18:42:26.904Z,1.40
2023-03-02T18:45:22.227Z,1.50
2023-03-02T18:48:11.258Z,1.50
2023-03-02T18:50:59.097Z,1.60
2023-03-02T18:53:47.322Z,1.60
2023-03-02T18:56:35.094Z,1.60
2023-03-02T18:59:22.408Z,1.60
2023-03-02T19:02:14.318Z,1.70
2023-03-02T19:05:03.413Z,1.70
2023-03-02T19:07:51.096Z,1.70
2023-03-02T19:10:42.305Z,1.70
2023-03-02T19:13:30.119Z,1.70
2023-03-02T19:16:18.612Z,1.70
2023-03-02T19:19:06.256Z,1.70
2023-03-02T19:21:55.292Z,1.70
2023-03-02T19:24:44.354Z,1.70
2023-03-02T19:27:31.886Z,1.70
2023-03-02T19:30:22.703Z,1.70
2023-03-02T19:33:10.357Z,1.70
2023-03-02T19:35:58.302Z,1.70
2023-03-02T19:38:47.438Z,1.70
2023-03-02T19:41:35.053Z,1.70
2023-03-02T19:44:22.332Z,1.60
2023-03-02T19:47:09.841Z,1.70
2023-03-02T19:49:57.416Z,1.60
2023-03-02T19:52:45.419Z,1.60
2023-03-02T19:55:34.955Z,1.60
2023-03-02T19:58:23.561Z,1.60
2023-03-02T20:01:11.495Z,1.60
2023-03-02T20:04:00.130Z,1.60
2023-03-02T20:06:47.855Z,1.60
2023-03-02T20:09:35.175Z,1.60
2023-03-02T20:12:24.293Z,1.60
2023-03-02T20:15:12.834Z,1.60
2023-03-02T20:18:02.710Z,1.50
2023-03-02T20:20:50.375Z,1.50
2023-03-02T20:23:37.930Z,1.50
2023-03-02T20:26:27.088Z,1.50
2023-03-02T20:29:16.793Z,1.50
2023-03-02T20:32:08.890Z,1.50
2023-03-02T20:34:56.405Z,1.50
2023-03-02T20:37:46.037Z,1.50
2023-03-02T20:40:34.855Z,1.50
2023-03-02T20:43:22.798Z,1.50
2023-03-02T20:46:18.194Z,1.50
2023-03-02T20:49:06.977Z,1.50
2023-03-02T20:51:56.739Z,1.40
2023-03-02T20:54:45.178Z,1.40
2023-03-02T20:57:32.906Z,1.40
2023-03-02T21:00:25.084Z,1.40
2023-03-02T21:03:14.772Z,1.40
2023-03-02T21:06:02.880Z,1.40
2023-03-02T21:08:50.584Z,1.30
2023-03-02T21:11:38.870Z,1.30
2023-03-02T21:14:27.489Z,1.30
2023-03-02T21:17:15.076Z,1.30
2023-03-02T21:20:04.587Z,1.30
2023-03-02T21:22:52.049Z,1.20
2023-03-02T21:25:42.309Z,1.20
2023-03-02T21:28:30.542Z,1.20
2023-03-02T21:31:19.651Z,1.20
2023-03-02T21:34:08.347Z,1.30
2023-03-02T21:36:57.806Z,1.20
2023-03-02T21:39:45.808Z,1.30
2023-03-02T21:42:33.524Z,1.20
2023-03-02T21:45:22.449Z,1.20
2023-03-02T21:48:10.381Z,1.30
2023-03-02T21:50:58.027Z,1.20
2023-03-02T21:53:47.341Z,1.20
2023-03-02T21:56:35.619Z,1.20
2023-03-02T21:59:23.410Z,1.10
2023-03-02T22:02:12.453Z,1.20
2023-03-02T22:05:00.115Z,1.10
2023-03-02T22:07:48.258Z,1.10
2023-03-02T22:10:41.266Z,1.10
2023-03-02T22:13:32.318Z,1.00
2023-03-02T22:16:21.653Z,1.10
2023-03-02T22:19:25.116Z,1.00
2023-03-02T22:22:18.886Z,1.00
2023-03-02T22:25:16.123Z,1.00
2023-03-02T22:28:14.528Z,1.00
2023-03-02T22:31:02.052Z,1.00
2023-03-02T22:33:50.323Z,1.00
2023-03-02T22:36:37.990Z,1.00
2023-03-02T22:39:31.629Z,1.00
2023-03-02T22:42:21.354Z,0.90
2023-03-02T22:45:15.572Z,0.90
2023-03-02T22:48:03.536Z,0.90
2023-03-02T22:50:51.592Z,0.90
2023-03-02T22:53:46.851Z,0.90
2023-03-02T22:56:37.197Z,0.90
2023-03-02T22:59:26.479Z,0.90
2023-03-02T23:02:22.351Z,0.90
2023-03-02T23:05:26.075Z,0.90
2023-03-02T23:08:22.327Z,0.90
2023-03-02T23:11:16.047Z,0.90
2023-03-02T23:14:08.474Z,0.80
2023-03-02T23:16:59.945Z,0.80
2023-03-02T23:19:49.754Z,0.80
2023-03-02T23:22:39.161Z,0.70
2023-03-02T23:25:26.655Z,0.70
2023-03-02T23:28:14.129Z,0.70
2023-03-02T23:31:01.929Z,0.60
2023-03-02T23:33:49.597Z,0.60
2023-03-02T23:36:39.774Z,0.60
2023-03-02T23:39:27.872Z,0.60
2023-03-02T23:42:15.526Z,0.60
2023-03-02T23:45:02.958Z,0.60
2023-03-02T23:47:50.240Z,0.60
2023-03-02T23:50:37.828Z,0.60
2023-03-02T23:53:27.284Z,0.60
2023-03-02T23:56:14.948Z,0.60
2023-03-02T23:59:03.296Z,0.50
